Time;durP1;ratioP1;P1;durP2;ratioP2;P2;SDS_P1;SDS_P2;PMS_P1;PMS_P2;Temp;Humidity;BMP_temperature;BMP_pressure;BME280_temperature;BME280_humidity;BME280_pressure;Samples;Min_cycle;Max_cycle;Signal;HPM_P1;HPM_P2
2022/09/18 00:00:39;;;;;;;3.80;3.55;;;;;;;13.63;100.00;98204.94;1767232;78;21042;-46
2022/09/18 00:03:05;;;;;;;1.85;1.75;;;;;;;13.66;100.00;98210.59;1761366;78;21153;-48
2022/09/18 00:05:31;;;;;;;2.02;1.50;;;;;;;13.66;100.00;98212.80;1763534;79;21009;-47
2022/09/18 00:07:58;;;;;;;2.35;1.67;;;;;;;13.67;100.00;98217.22;1722635;80;21093;-46
2022/09/18 00:10:26;;;;;;;3.58;2.33;;;;;;;13.65;100.00;98213.78;1759582;78;21061;-46
2022/09/18 00:12:54;;;;;;;1.85;1.70;;;;;;;13.64;100.00;98202.59;1766310;79;21065;-47
2022/09/18 00:15:20;;;;;;;2.02;1.87;;;;;;;13.61;100.00;98201.50;1761206;78;21530;-47
2022/09/18 00:17:47;;;;;;;2.05;1.70;;;;;;;13.58;100.00;98201.28;1771183;78;21060;-47
2022/09/18 00:20:14;;;;;;;1.80;1.70;;;;;;;13.58;100.00;98197.23;1767310;78;21029;-49
2022/09/18 00:22:40;;;;;;;2.27;2.17;;;;;;;13.55;100.00;98189.86;1764184;78;21301;-48
2022/09/18 00:25:08;;;;;;;1.62;1.52;;;;;;;13.55;100.00;98193.92;1768765;78;21477;-47
2022/09/18 00:27:36;;;;;;;2.02;1.92;;;;;;;13.56;100.00;98187.03;1764120;78;21163;-48
2022/09/18 00:30:03;;;;;;;1.85;1.35;;;;;;;13.57;100.00;98184.70;1767050;78;21444;-46
2022/09/18 00:32:29;;;;;;;1.72;1.62;;;;;;;13.61;100.00;98181.22;1765901;78;21057;-46
2022/09/18 00:34:55;;;;;;;3.10;1.80;;;;;;;13.61;100.00;98171.76;1766604;78;21060;-46
2022/09/18 00:37:22;;;;;;;2.00;1.90;;;;;;;13.61;100.00;98155.05;1765544;78;20922;-46
2022/09/18 00:39:49;;;;;;;2.02;1.82;;;;;;;13.62;100.00;98157.25;1768062;78;21763;-48
2022/09/18 00:42:18;;;;;;;3.85;1.77;;;;;;;13.63;100.00;98158.97;1765620;78;22135;-46
2022/09/18 00:44:46;;;;;;;4.67;2.75;;;;;;;13.64;100.00;98153.94;1760999;78;21008;-46
2022/09/18 00:47:31;;;;;;;5.17;2.85;;;;;;;13.67;100.00;98150.13;1761191;79;20922;-45
2022/09/18 00:50:16;;;;;;;4.15;3.40;;;;;;;13.68;100.00;98143.73;1763617;78;20938;-46
2022/09/18 00:52:56;;;;;;;5.10;4.72;;;;;;;13.67;100.00;98144.22;1759833;79;21811;-48
2022/09/18 00:55:30;;;;;;;6.95;5.83;;;;;;;13.69;100.00;98146.80;1762904;79;20897;-46
2022/09/18 00:57:58;;;;;;;6.55;5.97;;;;;;;13.67;100.00;98149.63;1758944;79;25239;-46
2022/09/18 01:00:25;;;;;;;5.85;5.35;;;;;;;13.68;100.00;98138.32;1765610;79;20954;-46
2022/09/18 01:02:52;;;;;;;7.03;6.30;;;;;;;13.68;100.00;98128.86;1763607;79;21523;-46
2022/09/18 01:05:52;;;;;;;8.83;5.67;;;;;;;13.66;100.00;98122.22;1758923;79;21797;-47
2022/09/18 01:08:27;;;;;;;8.55;6.12;;;;;;;13.64;100.00;98134.52;1763299;79;21424;-48
2022/09/18 01:11:18;;;;;;;5.97;5.20;;;;;;;13.63;100.00;98130.59;1756130;79;20959;-45
2022/09/18 01:14:08;;;;;;;5.72;5.22;;;;;;;13.61;100.00;98123.09;1761153;79;21045;-45
2022/09/18 01:17:04;;;;;;;3.90;3.17;;;;;;;13.59;100.00;98122.39;1709311;81;21096;-46
2022/09/18 01:19:48;;;;;;;4.05;3.70;;;;;;;13.48;100.00;98111.14;1674614;81;21654;-46
2022/09/18 01:22:43;;;;;;;4.20;3.25;;;;;;;13.45;100.00;98101.08;1738788;79;21097;-48
2022/09/18 01:26:07;;;;;;;3.33;3.02;;;;;;;13.41;100.00;98095.10;1757696;79;21087;-46
2022/09/18 01:28:45;;;;;;;3.52;3.22;;;;;;;13.39;100.00;98094.86;1762520;79;22290;-48
2022/09/18 01:31:19;;;;;;;3.37;3.08;;;;;;;13.40;100.00;98092.03;1755246;79;21075;-46
2022/09/18 01:34:09;;;;;;;3.50;2.30;;;;;;;13.40;100.00;98081.71;1707094;81;21764;-46
2022/09/18 01:36:37;;;;;;;1.90;1.55;;;;;;;13.41;100.00;98076.18;1754878;79;21053;-45
2022/09/18 01:39:18;;;;;;;2.00;1.90;;;;;;;13.42;100.00;98079.25;1731918;80;21042;-47
2022/09/18 01:41:50;;;;;;;6.47;3.47;;;;;;;13.41;100.00;98082.94;1755211;80;21769;-47
2022/09/18 01:44:20;;;;;;;2.80;2.22;;;;;;;13.38;100.00;98072.87;1756417;79;21459;-47
2022/09/18 01:46:46;;;;;;;3.62;2.17;;;;;;;13.36;100.00;98067.59;1700760;82;21775;-45
2022/09/18 01:49:24;;;;;;;4.40;1.70;;;;;;;13.34;100.00;98064.19;1695033;82;21090;-45
2022/09/18 01:52:11;;;;;;;1.82;1.47;;;;;;;13.32;100.00;98062.11;1720855;80;21101;-47
2022/09/18 01:54:41;;;;;;;2.83;2.10;;;;;;;13.33;100.00;98057.07;1722916;80;21406;-46
2022/09/18 01:57:15;;;;;;;3.17;1.62;;;;;;;13.30;100.00;98042.46;1693220;82;21135;-45
2022/09/18 01:59:58;;;;;;;1.98;1.47;;;;;;;13.25;100.00;98044.22;1710655;81;21144;-45
2022/09/18 02:02:43;;;;;;;2.10;1.57;;;;;;;13.19;100.00;98039.33;1702781;82;21030;-45
2022/09/18 02:05:14;;;;;;;1.92;1.22;;;;;;;13.19;100.00;98037.11;1706721;81;21086;-45
2022/09/18 02:07:52;;;;;;;2.45;2.25;;;;;;;13.19;100.00;98043.38;1707767;81;21493;-45
2022/09/18 02:10:18;;;;;;;3.47;2.05;;;;;;;13.17;100.00;98037.27;1710890;81;21457;-44
2022/09/18 02:12:45;;;;;;;1.80;1.40;;;;;;;13.17;100.00;98041.81;1708551;81;21146;-46
2022/09/18 02:15:13;;;;;;;1.55;1.42;;;;;;;13.16;100.00;98038.25;1706069;81;21130;-44
2022/09/18 02:17:51;;;;;;;3.45;1.45;;;;;;;13.16;100.00;98031.99;1706188;81;21527;-45
2022/09/18 02:20:25;;;;;;;1.40;1.30;;;;;;;13.17;100.00;98022.91;1705380;81;21095;-48
2022/09/18 02:22:52;;;;;;;1.90;1.30;;;;;;;13.15;100.00;98026.22;1709545;81;21066;-48
2022/09/18 02:25:26;;;;;;;1.40;1.30;;;;;;;13.12;100.00;98015.14;1710640;81;21567;-45
2022/09/18 02:27:53;;;;;;;1.55;1.42;;;;;;;13.11;100.00;98011.22;1710497;81;21022;-49
2022/09/18 02:30:21;;;;;;;2.70;1.30;;;;;;;13.08;100.00;98004.26;1706772;81;21487;-45
2022/09/18 02:32:56;;;;;;;3.27;1.87;;;;;;;13.11;100.00;98001.27;1711672;81;21433;-46
2022/09/18 02:35:24;;;;;;;3.02;2.62;;;;;;;13.15;100.00;97996.51;1700956;82;21600;-45
2022/09/18 02:38:16;;;;;;;5.95;5.22;;;;;;;13.18;100.00;97986.80;1696763;81;21480;-45
2022/09/18 02:41:00;;;;;;;9.90;7.08;;;;;;;13.20;100.00;97975.34;1691103;82;21075;-46
2022/09/18 02:43:50;;;;;;;8.75;7.87;;;;;;;13.17;100.00;97955.37;1704416;81;21078;-49
2022/09/18 02:46:58;;;;;;;10.20;9.15;;;;;;;13.14;100.00;97957.83;1704655;81;21111;-45
2022/09/18 02:49:36;;;;;;;11.50;8.80;;;;;;;13.12;100.00;97957.06;1678920;83;21084;-46
2022/09/18 02:52:34;;;;;;;9.85;8.85;;;;;;;13.13;100.00;97949.36;1671002;83;21334;-46
2022/09/18 02:55:11;;;;;;;8.08;7.37;;;;;;;13.09;100.00;97942.50;1692628;82;21166;-46
2022/09/18 02:57:46;;;;;;;8.25;7.53;;;;;;;13.10;100.00;97929.33;1717852;80;21550;-46
2022/09/18 03:00:15;;;;;;;13.40;6.97;;;;;;;13.07;100.00;97917.45;1755294;79;21080;-47
2022/09/18 03:02:41;;;;;;;8.58;7.87;;;;;;;13.08;100.00;97912.91;1722598;79;20997;-46
2022/09/18 03:05:08;;;;;;;8.30;7.50;;;;;;;13.07;100.00;97911.20;1752588;79;21241;-48
2022/09/18 03:07:40;;;;;;;6.15;5.67;;;;;;;13.06;100.00;97908.13;1756885;79;21519;-46
2022/09/18 03:10:08;;;;;;;5.65;5.22;;;;;;;13.06;100.00;97905.43;1758499;79;21167;-48
2022/09/18 03:12:35;;;;;;;4.53;4.12;;;;;;;13.06;100.00;97903.59;1732228;79;21602;-46
2022/09/18 03:15:05;;;;;;;4.65;4.25;;;;;;;13.04;100.00;97900.66;1759147;79;21094;-45
2022/09/18 03:17:33;;;;;;;4.20;3.85;;;;;;;12.98;100.00;97894.44;1757545;79;21026;-48
2022/09/18 03:20:03;;;;;;;4.30;3.72;;;;;;;12.96;100.00;97888.31;1755398;79;21156;-46
2022/09/18 03:22:30;;;;;;;2.65;2.55;;;;;;;12.97;100.00;97893.58;1755198;79;21029;-46
2022/09/18 03:24:56;;;;;;;2.67;2.47;;;;;;;12.98;100.00;97882.30;1756358;79;21035;-48
2022/09/18 03:27:22;;;;;;;2.33;1.92;;;;;;;12.98;100.00;97883.64;1762179;79;21069;-46
2022/09/18 03:29:50;;;;;;;2.80;1.80;;;;;;;12.95;100.00;97882.05;1758724;79;21544;-46
2022/09/18 03:32:18;;;;;;;4.47;1.85;;;;;;;12.94;100.00;97881.69;1761099;79;21075;-46
2022/09/18 03:34:47;;;;;;;4.28;2.22;;;;;;;12.92;100.00;97876.08;1760702;79;21071;-47
2022/09/18 03:37:14;;;;;;;2.65;1.52;;;;;;;12.91;100.00;97868.97;1761439;79;20950;-45
2022/09/18 03:39:41;;;;;;;1.27;1.17;;;;;;;12.92;100.00;97870.19;1757690;79;21276;-46
2022/09/18 03:42:09;;;;;;;0.98;0.90;;;;;;;12.94;100.00;97860.09;1704075;82;21737;-45
2022/09/18 03:44:36;;;;;;;1.42;1.00;;;;;;;12.93;100.00;97865.13;1709583;82;21402;-47
2022/09/18 03:47:04;;;;;;;1.10;1.10;;;;;;;12.92;100.00;97863.44;1756896;80;20961;-47
2022/09/18 03:49:31;;;;;;;1.57;1.10;;;;;;;12.94;100.00;97863.28;1750924;80;21057;-48
2022/09/18 03:51:57;;;;;;;1.42;0.80;;;;;;;12.93;100.00;97857.55;1754463;79;21128;-49
2022/09/18 03:54:26;;;;;;;1.00;0.90;;;;;;;12.89;100.00;97853.75;1762344;79;21078;-45
2022/09/18 03:57:00;;;;;;;1.10;1.00;;;;;;;12.91;100.00;97850.06;1755617;79;26894;-46
2022/09/18 03:59:28;;;;;;;2.15;1.10;;;;;;;12.91;100.00;97841.47;1761436;79;20970;-46
2022/09/18 04:01:59;;;;;;;1.20;1.10;;;;;;;12.93;100.00;97844.05;1727933;80;20945;-46
2022/09/18 04:04:26;;;;;;;1.10;1.00;;;;;;;12.95;100.00;97842.04;1763075;79;20977;-45
2022/09/18 04:07:07;;;;;;;1.05;0.98;;;;;;;12.96;100.00;97839.70;1753360;79;21584;-46
2022/09/18 04:09:45;;;;;;;1.10;1.00;;;;;;;12.95;100.00;97823.99;1756383;79;21144;-45
2022/09/18 04:12:12;;;;;;;2.83;1.30;;;;;;;12.97;100.00;97815.77;1754848;79;21058;-47
2022/09/18 04:14:39;;;;;;;1.22;0.93;;;;;;;12.98;100.00;97806.67;1753783;79;21084;-44
2022/09/18 04:17:07;;;;;;;1.00;0.90;;;;;;;13.00;100.00;97806.91;1760044;79;21026;-45
2022/09/18 04:19:35;;;;;;;1.25;1.15;;;;;;;13.02;100.00;97796.80;1762689;79;21875;-45
2022/09/18 04:22:02;;;;;;;1.50;1.40;;;;;;;13.04;100.00;97790.77;1759215;79;21488;-45
2022/09/18 04:24:29;;;;;;;1.20;1.10;;;;;;;13.00;100.00;97769.59;1761916;79;21022;-46
2022/09/18 04:26:55;;;;;;;2.27;0.90;;;;;;;12.97;100.00;97759.91;1758978;79;21042;-46
2022/09/18 04:29:23;;;;;;;0.85;0.80;;;;;;;12.95;100.00;97756.48;1752656;79;21211;-49
2022/09/18 04:31:49;;;;;;;0.90;0.90;;;;;;;12.94;100.00;97755.27;1763429;79;21140;-45
2022/09/18 04:34:16;;;;;;;1.20;1.10;;;;;;;12.92;100.00;97751.87;1762436;80;21694;-44
2022/09/18 04:36:43;;;;;;;0.85;0.85;;;;;;;12.93;100.00;97750.88;1758800;80;21005;-46
2022/09/18 04:39:10;;;;;;;1.45;1.07;;;;;;;12.96;100.00;97753.29;1758721;79;21053;-46
2022/09/18 04:41:36;;;;;;;1.22;1.00;;;;;;;12.99;100.00;97755.73;1757983;79;21531;-45
2022/09/18 04:44:04;;;;;;;2.10;1.02;;;;;;;13.00;100.00;97742.59;1756595;79;21148;-46
2022/09/18 04:46:30;;;;;;;1.80;1.45;;;;;;;13.01;100.00;97735.70;1739035;79;21080;-46
2022/09/18 04:48:57;;;;;;;3.27;1.20;;;;;;;13.03;100.00;97730.13;1729886;80;21077;-47
2022/09/18 04:51:24;;;;;;;1.98;0.95;;;;;;;13.06;100.00;97729.87;1727640;80;21132;-46
2022/09/18 04:53:51;;;;;;;3.15;1.10;;;;;;;13.08;100.00;97731.45;1731499;80;21485;-47
2022/09/18 04:56:17;;;;;;;3.22;0.90;;;;;;;13.11;100.00;97729.80;1727878;79;21137;-48
2022/09/18 04:58:45;;;;;;;2.50;1.20;;;;;;;13.13;100.00;97732.38;1727110;79;21088;-49
2022/09/18 05:01:12;;;;;;;1.20;0.88;;;;;;;13.15;100.00;97733.98;1725662;79;21104;-47
2022/09/18 05:03:38;;;;;;;1.50;0.95;;;;;;;13.17;100.00;97732.50;1728235;79;21116;-45
2022/09/18 05:06:06;;;;;;;1.05;0.90;;;;;;;13.19;100.00;97721.03;1728680;80;21148;-47
2022/09/18 05:08:33;;;;;;;1.52;0.78;;;;;;;13.21;100.00;97715.00;1736729;80;21875;-47
2022/09/18 05:11:03;;;;;;;2.25;0.70;;;;;;;13.22;100.00;97713.52;1733799;79;21543;-45
2022/09/18 05:13:31;;;;;;;1.32;0.70;;;;;;;13.25;100.00;97704.29;1735147;80;21108;-46
2022/09/18 05:16:02;;;;;;;2.37;0.60;;;;;;;13.28;100.00;97699.08;1741866;80;21697;-47
2022/09/18 05:18:30;;;;;;;0.70;0.70;;;;;;;13.29;100.00;97698.09;1730298;79;21112;-46
2022/09/18 05:21:02;;;;;;;0.88;0.62;;;;;;;13.30;100.00;97689.85;1729618;80;21535;-47
2022/09/18 05:23:33;;;;;;;0.65;0.53;;;;;;;13.30;100.00;97672.78;1728880;79;21061;-46
2022/09/18 05:26:01;;;;;;;1.45;0.50;;;;;;;13.31;100.00;97669.95;1730297;79;21119;-46
2022/09/18 05:28:28;;;;;;;0.50;0.47;;;;;;;13.32;100.00;97668.95;1733636;80;21064;-45
2022/09/18 05:30:59;;;;;;;0.50;0.40;;;;;;;13.33;100.00;97674.72;1738495;80;21109;-46
2022/09/18 05:33:28;;;;;;;1.15;0.50;;;;;;;13.33;100.00;97665.27;1740500;80;21855;-45
2022/09/18 05:35:55;;;;;;;0.95;0.40;;;;;;;13.35;100.00;97673.23;1727026;80;21757;-46
2022/09/18 05:38:24;;;;;;;0.30;0.30;;;;;;;13.35;100.00;97674.09;1728840;80;21093;-46
2022/09/18 05:40:51;;;;;;;0.40;0.40;;;;;;;13.34;100.00;97672.88;1748820;80;21459;-46
2022/09/18 05:43:18;;;;;;;0.30;0.30;;;;;;;13.30;100.00;97664.18;1748956;80;21483;-46
2022/09/18 05:45:46;;;;;;;0.40;0.40;;;;;;;13.28;100.00;97663.46;1737371;80;21134;-46
2022/09/18 05:48:14;;;;;;;0.40;0.40;;;;;;;13.28;100.00;97655.85;1763682;79;21100;-46
2022/09/18 05:50:42;;;;;;;0.40;0.37;;;;;;;13.27;100.00;97659.58;1764539;79;22282;-46
2022/09/18 05:53:13;;;;;;;0.40;0.40;;;;;;;13.27;100.00;97653.64;1767488;79;21041;-47
2022/09/18 05:55:41;;;;;;;0.40;0.40;;;;;;;13.25;100.00;97651.61;1694056;82;21134;-45
2022/09/18 05:58:13;;;;;;;0.47;0.40;;;;;;;13.24;100.00;97655.30;1697993;82;21096;-45
2022/09/18 06:00:40;;;;;;;0.50;0.40;;;;;;;13.23;100.00;97653.09;1704022;82;21085;-45
2022/09/18 06:03:10;;;;;;;3.87;0.40;;;;;;;13.24;100.00;97656.16;1695830;82;21589;-45
2022/09/18 06:05:38;;;;;;;0.47;0.47;;;;;;;13.25;100.00;97645.70;1723641;80;21459;-47
2022/09/18 06:08:06;;;;;;;0.50;0.50;;;;;;;13.26;100.00;97646.56;1719912;80;21064;-45
2022/09/18 06:10:36;;;;;;;0.50;0.50;;;;;;;13.25;100.00;97644.36;1726118;80;21835;-45
2022/09/18 06:13:14;;;;;;;0.60;0.60;;;;;;;13.23;100.00;97623.37;1724004;80;21330;-46
2022/09/18 06:15:47;;;;;;;2.42;0.40;;;;;;;13.21;100.00;97616.40;1701455;82;21669;-44
2022/09/18 06:18:14;;;;;;;0.60;0.50;;;;;;;13.20;100.00;97627.70;1707291;82;21094;-45
2022/09/18 06:20:42;;;;;;;0.45;0.45;;;;;;;13.21;100.00;97622.66;1693048;82;21082;-47
2022/09/18 06:23:09;;;;;;;0.50;0.50;;;;;;;13.22;100.00;97624.86;1714597;81;21083;-47
2022/09/18 06:25:37;;;;;;;0.50;0.50;;;;;;;13.21;100.00;97605.59;1727140;80;21498;-45
2022/09/18 06:28:05;;;;;;;0.70;0.70;;;;;;;13.22;100.00;97603.25;1701695;82;20940;-47
2022/09/18 06:30:33;;;;;;;0.60;0.55;;;;;;;13.23;100.00;97609.87;1694677;82;21016;-46
2022/09/18 06:33:04;;;;;;;0.53;0.53;;;;;;;13.24;100.00;97609.38;1726580;80;20964;-47
2022/09/18 06:35:34;;;;;;;0.60;0.60;;;;;;;13.24;100.00;97608.02;1694002;82;21313;-46
2022/09/18 06:38:05;;;;;;;0.70;0.70;;;;;;;13.24;100.00;97606.17;1695394;82;21338;-46
2022/09/18 06:40:36;;;;;;;1.00;0.60;;;;;;;13.23;100.00;97606.31;1698012;82;21044;-46
2022/09/18 06:43:10;;;;;;;0.70;0.70;;;;;;;13.23;100.00;97604.96;1691033;82;20917;-46
2022/09/18 06:45:53;;;;;;;0.50;0.50;;;;;;;13.23;100.00;97590.95;1720460;80;24845;-46
2022/09/18 06:48:23;;;;;;;0.60;0.60;;;;;;;13.27;100.00;97584.75;1716308;81;21150;-48
2022/09/18 06:50:52;;;;;;;0.60;0.60;;;;;;;13.31;100.00;97593.44;1714051;81;21491;-46
2022/09/18 06:53:18;;;;;;;1.60;0.68;;;;;;;13.35;100.00;97597.08;1762946;79;20904;-44
2022/09/18 06:55:47;;;;;;;0.65;0.60;;;;;;;13.38;100.00;97590.52;1753804;79;20946;-47
2022/09/18 06:58:16;;;;;;;0.70;0.70;;;;;;;13.39;100.00;97597.63;1757478;79;20921;-47
2022/09/18 07:00:43;;;;;;;0.60;0.60;;;;;;;13.40;100.00;97596.13;1759115;79;21043;-48
2022/09/18 07:03:09;;;;;;;0.82;0.80;;;;;;;13.42;100.00;97598.20;1735776;80;20947;-46
2022/09/18 07:05:53;;;;;;;0.65;0.60;;;;;;;13.43;100.00;97598.56;1681804;83;21604;-49
2022/09/18 07:08:31;;;;;;;0.68;0.65;;;;;;;13.45;100.00;97592.48;1732462;79;21087;-47
2022/09/18 07:11:01;;;;;;;0.62;0.62;;;;;;;13.46;100.00;97590.64;1745272;79;21061;-46
2022/09/18 07:13:31;;;;;;;0.62;0.62;;;;;;;13.48;100.00;97573.30;1693321;82;21044;-48
2022/09/18 07:15:58;;;;;;;0.70;0.60;;;;;;;13.49;100.00;97560.14;1749261;79;21092;-46
2022/09/18 07:18:25;;;;;;;0.60;0.60;;;;;;;13.53;100.00;97552.08;1745949;79;21054;-47
2022/09/18 07:20:52;;;;;;;0.70;0.60;;;;;;;13.54;100.00;97549.73;1758018;80;21084;-48
2022/09/18 07:23:20;;;;;;;0.70;0.70;;;;;;;13.55;100.00;97531.17;1751106;79;20995;-48
2022/09/18 07:25:48;;;;;;;0.70;0.65;;;;;;;13.58;100.00;97537.65;1693477;82;21084;-49
2022/09/18 07:28:15;;;;;;;1.10;0.70;;;;;;;13.61;100.00;97532.42;1747166;79;21038;-45
2022/09/18 07:30:44;;;;;;;0.80;0.60;;;;;;;13.61;100.00;97538.69;1749488;80;20974;-46
2022/09/18 07:33:10;;;;;;;0.70;0.70;;;;;;;13.63;100.00;97545.30;1750956;79;21049;-50
2022/09/18 07:35:39;;;;;;;0.90;0.70;;;;;;;13.64;100.00;97545.16;1749909;79;22466;-48
2022/09/18 07:38:06;;;;;;;0.80;0.80;;;;;;;13.67;100.00;97526.95;1756361;79;21199;-47
2022/09/18 07:40:38;;;;;;;0.75;0.70;;;;;;;13.69;100.00;97525.81;1745225;79;22234;-48
2022/09/18 07:43:09;;;;;;;0.75;0.60;;;;;;;13.71;100.00;97533.25;1754417;79;21074;-49
2022/09/18 07:45:37;;;;;;;0.62;0.62;;;;;;;13.75;100.00;97541.44;1749011;79;21089;-50
2022/09/18 07:48:06;;;;;;;0.70;0.70;;;;;;;13.77;100.00;97548.06;1750395;79;21532;-47
2022/09/18 07:50:34;;;;;;;0.70;0.70;;;;;;;13.79;100.00;97546.03;1694473;82;22341;-49
2022/09/18 07:53:02;;;;;;;0.60;0.60;;;;;;;13.80;100.00;97541.84;1751931;79;21054;-50
2022/09/18 07:55:33;;;;;;;0.65;0.65;;;;;;;13.79;100.00;97548.73;1746577;79;21463;-46
2022/09/18 07:58:01;;;;;;;1.00;0.60;;;;;;;13.77;100.00;97551.62;1753009;79;21715;-50
2022/09/18 08:00:46;;;;;;;2.25;0.50;;;;;;;13.78;100.00;97552.47;1751505;79;21169;-47
2022/09/18 08:03:14;;;;;;;0.65;0.60;;;;;;;13.77;100.00;97543.50;1752243;79;21192;-48
2022/09/18 08:05:56;;;;;;;0.60;0.60;;;;;;;13.77;100.00;97551.62;1747877;80;21078;-49
2022/09/18 08:08:23;;;;;;;0.90;0.60;;;;;;;13.78;100.00;97548.41;1754671;79;21145;-48
2022/09/18 08:10:54;;;;;;;1.72;0.70;;;;;;;13.81;100.00;97539.98;1752191;79;21585;-45
2022/09/18 08:13:39;;;;;;;1.00;0.80;;;;;;;13.79;100.00;97543.33;1753957;79;21069;-47
2022/09/18 08:16:08;;;;;;;0.80;0.80;;;;;;;13.78;100.00;97538.95;1754875;80;21999;-45
2022/09/18 08:18:49;;;;;;;0.65;0.62;;;;;;;13.80;100.00;97530.16;1695045;79;21026;-46
2022/09/18 08:21:32;;;;;;;0.80;0.60;;;;;;;13.81;100.00;97527.32;1754514;79;21121;-48
2022/09/18 08:24:02;;;;;;;0.60;0.60;;;;;;;13.86;100.00;97519.63;1747027;79;21072;-48
2022/09/18 08:26:30;;;;;;;0.60;0.60;;;;;;;13.89;100.00;97519.31;1752839;79;21062;-50
2022/09/18 08:28:56;;;;;;;0.40;0.40;;;;;;;13.94;100.00;97520.24;1695079;82;21059;-51
2022/09/18 08:31:22;;;;;;;0.53;0.53;;;;;;;14.01;100.00;97519.99;1751398;79;21094;-48
2022/09/18 08:33:51;;;;;;;1.02;0.50;;;;;;;14.05;100.00;97524.09;1756659;80;22275;-47
2022/09/18 08:36:18;;;;;;;0.50;0.50;;;;;;;14.09;100.00;97518.74;1751991;79;21179;-49
2022/09/18 08:38:46;;;;;;;0.50;0.50;;;;;;;14.09;100.00;97509.77;1753859;80;20963;-47
2022/09/18 08:41:38;;;;;;;0.55;0.55;;;;;;;14.10;100.00;97516.39;1715726;80;21120;-48
2022/09/18 08:44:12;;;;;;;0.47;0.47;;;;;;;14.15;100.00;97518.13;1758388;79;21079;-47
2022/09/18 08:46:47;;;;;;;0.40;0.40;;;;;;;14.17;100.00;97506.67;1759231;79;21118;-48
2022/09/18 08:49:25;;;;;;;0.42;0.42;;;;;;;14.23;100.00;97493.03;1748423;79;21112;-47
2022/09/18 08:52:15;;;;;;;0.40;0.40;;;;;;;14.25;100.00;97482.91;1749278;79;21038;-46
2022/09/18 08:54:56;;;;;;;0.80;0.40;;;;;;;14.23;100.00;97477.64;1751582;80;21218;-48
2022/09/18 08:57:45;;;;;;;0.40;0.40;;;;;;;14.21;100.00;97483.70;1750132;79;21022;-47
2022/09/18 09:00:28;;;;;;;0.40;0.40;;;;;;;14.27;100.00;97480.91;1755883;79;21026;-47
2022/09/18 09:03:29;;;;;;;0.95;0.50;;;;;;;14.31;100.00;97475.03;1755484;79;21038;-47
2022/09/18 09:06:09;;;;;;;2.45;0.40;;;;;;;14.32;100.00;97474.53;1755525;80;21187;-46
2022/09/18 09:09:09;;;;;;;0.50;0.40;;;;;;;14.32;100.00;97469.97;1754898;79;23464;-50
2022/09/18 09:12:11;;;;;;;2.00;0.40;;;;;;;14.33;100.00;97460.85;1753061;80;21505;-48
2022/09/18 09:15:10;;;;;;;0.40;0.40;;;;;;;14.30;100.00;97460.30;1753214;79;21048;-48
2022/09/18 09:17:40;;;;;;;0.50;0.50;;;;;;;14.32;100.00;97456.94;1727839;80;21042;-47
2022/09/18 09:20:26;;;;;;;0.50;0.50;;;;;;;14.35;100.00;97461.56;1757550;80;21044;-47
2022/09/18 09:23:03;;;;;;;0.60;0.60;;;;;;;14.41;100.00;97456.05;1757542;80;21959;-47
2022/09/18 09:26:08;;;;;;;1.00;0.60;;;;;;;14.43;100.00;97440.52;1751578;79;21082;-50
2022/09/18 09:28:59;;;;;;;0.70;0.57;;;;;;;14.45;100.00;97429.55;1748060;79;21066;-47
2022/09/18 09:31:49;;;;;;;0.70;0.50;;;;;;;14.45;100.00;97427.69;1752239;79;20998;-48
2022/09/18 09:34:39;;;;;;;0.50;0.50;;;;;;;14.46;100.00;97427.19;1754520;79;21073;-47
2022/09/18 09:37:15;;;;;;;0.75;0.50;;;;;;;14.49;100.00;97440.40;1754216;79;21681;-46
2022/09/18 09:39:47;;;;;;;0.60;0.60;;;;;;;14.54;100.00;97435.39;1754975;79;21088;-49
2022/09/18 09:42:30;;;;;;;0.60;0.60;;;;;;;14.61;100.00;97433.27;1750806;79;21030;-46
2022/09/18 09:45:23;;;;;;;1.87;0.62;;;;;;;14.68;100.00;97431.63;1754920;79;21013;-48
2022/09/18 09:48:02;;;;;;;0.60;0.60;;;;;;;14.77;100.00;97440.67;1752467;79;21025;-49
2022/09/18 09:50:37;;;;;;;0.65;0.65;;;;;;;14.86;100.00;97443.80;1758391;79;22217;-49
2022/09/18 09:53:07;;;;;;;0.80;0.78;;;;;;;14.89;100.00;97442.61;1759876;79;21342;-49
2022/09/18 09:56:22;;;;;;;0.80;0.80;;;;;;;14.90;100.00;97435.69;1757615;79;20998;-46
2022/09/18 09:59:23;;;;;;;0.70;0.70;;;;;;;14.95;100.00;97437.45;1760797;79;20998;-49
2022/09/18 10:02:30;;;;;;;1.00;0.80;;;;;;;15.03;100.00;97438.86;1752883;79;20994;-47
2022/09/18 10:05:05;;;;;;;0.82;0.82;;;;;;;15.09;100.00;97434.66;1762828;79;21877;-47
2022/09/18 10:07:50;;;;;;;1.22;1.12;;;;;;;15.12;100.00;97445.20;1746751;79;20988;-49
2022/09/18 10:10:31;;;;;;;1.20;1.00;;;;;;;15.13;100.00;97447.75;1762124;79;21001;-50
2022/09/18 10:13:02;;;;;;;1.20;1.10;;;;;;;15.14;100.00;97439.94;1763456;79;20986;-49
2022/09/18 10:15:45;;;;;;;1.25;1.15;;;;;;;15.15;100.00;97442.14;1755274;79;21477;-46
2022/09/18 10:18:33;;;;;;;1.40;1.30;;;;;;;15.17;100.00;97437.93;1761067;79;21565;-46
2022/09/18 10:21:17;;;;;;;0.88;0.88;;;;;;;15.17;100.00;97446.91;1762495;80;21057;-48
2022/09/18 10:23:59;;;;;;;1.10;1.00;;;;;;;15.19;100.00;97449.47;1756266;79;21531;-48
2022/09/18 10:26:36;;;;;;;2.45;0.95;;;;;;;15.19;100.00;97440.84;1759949;79;21109;-47
2022/09/18 10:29:03;;;;;;;4.22;1.52;;;;;;;15.20;100.00;97436.27;1756682;79;21112;-47
2022/09/18 10:31:52;;;;;;;1.52;1.42;;;;;;;15.22;100.00;97440.53;1759466;79;21818;-47
2022/09/18 10:34:47;;;;;;;1.65;1.52;;;;;;;15.24;100.00;97439.84;1759645;79;21446;-46
2022/09/18 10:37:31;;;;;;;;;;;;;;;15.24;100.00;97433.06;1757169;80;21504;-45
2022/09/18 10:40:01;;;;;;;2.55;1.22;;;;;;;15.25;100.00;97432.06;1754980;79;20174;-47
2022/09/18 10:42:33;;;;;;;1.65;1.55;;;;;;;15.23;100.00;97427.30;1752229;80;21043;-52
2022/09/18 10:45:21;;;;;;;1.70;1.60;;;;;;;15.25;100.00;97425.79;1752922;79;21135;-47
2022/09/18 10:47:48;;;;;;;1.05;1.02;;;;;;;15.25;100.00;97419.02;1742742;80;21108;-49
2022/09/18 10:50:18;;;;;;;1.50;1.40;;;;;;;15.26;100.00;97420.72;1759762;79;21111;-46
2022/09/18 10:52:47;;;;;;;2.05;1.12;;;;;;;15.25;100.00;97418.52;1758449;79;21073;-47
2022/09/18 10:55:22;;;;;;;1.60;1.50;;;;;;;15.28;100.00;97417.35;1704573;82;21039;-50
2022/09/18 10:57:59;;;;;;;3.08;1.42;;;;;;;15.29;100.00;97410.42;1756338;79;21222;-50
2022/09/18 11:00:32;;;;;;;1.45;1.35;;;;;;;15.30;100.00;97408.06;1759481;79;21097;-45
2022/09/18 11:03:24;;;;;;;0.90;0.90;;;;;;;15.31;100.00;97407.02;1755644;79;21086;-46
2022/09/18 11:05:56;;;;;;;1.95;0.80;;;;;;;15.31;100.00;97401.60;1735761;80;21041;-49
2022/09/18 11:08:29;;;;;;;0.70;0.70;;;;;;;15.33;100.00;97402.30;1693321;82;21111;-49
2022/09/18 11:11:12;;;;;;;0.72;0.72;;;;;;;15.34;100.00;97396.38;1756048;79;21137;-50
2022/09/18 11:13:50;;;;;;;1.35;0.60;;;;;;;15.34;100.00;97390.45;1754620;79;21152;-46
2022/09/18 11:16:24;;;;;;;0.75;0.50;;;;;;;15.35;100.00;97380.46;1758470;79;21085;-50
2022/09/18 11:19:04;;;;;;;0.70;0.70;;;;;;;15.37;100.00;97375.73;1757531;79;21652;-48
2022/09/18 11:21:30;;;;;;;4.80;0.88;;;;;;;15.37;100.00;97372.52;1758450;79;21295;-46
2022/09/18 11:24:04;;;;;;;0.80;0.50;;;;;;;15.40;100.00;97372.68;1756870;79;21630;-50
2022/09/18 11:26:31;;;;;;;0.62;0.50;;;;;;;15.43;100.00;97372.37;1755709;79;21084;-49
2022/09/18 11:29:04;;;;;;;0.50;0.40;;;;;;;15.46;100.00;97369.34;1758183;79;20974;-47
2022/09/18 11:31:50;;;;;;;0.90;0.50;;;;;;;15.47;100.00;97356.14;1763598;79;21330;-50
2022/09/18 11:34:30;;;;;;;0.50;0.50;;;;;;;15.49;100.00;97344.60;1753795;80;21038;-47
2022/09/18 11:37:01;;;;;;;0.60;0.47;;;;;;;15.52;100.00;97351.92;1757249;79;21132;-51
2022/09/18 11:39:43;;;;;;;1.67;0.60;;;;;;;15.58;100.00;97346.88;1764042;79;21368;-47
2022/09/18 11:42:13;;;;;;;0.60;0.57;;;;;;;15.61;100.00;97339.27;1758017;79;22377;-49
2022/09/18 11:44:40;;;;;;;0.40;0.40;;;;;;;15.65;100.00;97327.61;1760011;79;21030;-50
2022/09/18 11:47:27;;;;;;;0.75;0.50;;;;;;;15.68;100.00;97328.62;1759032;79;21570;-49
2022/09/18 11:50:20;;;;;;;1.92;0.55;;;;;;;15.72;100.00;97324.58;1750855;79;21535;-47
2022/09/18 11:52:53;;;;;;;1.00;0.50;;;;;;;15.75;100.00;97315.59;1747969;79;21595;-51
2022/09/18 11:56:07;;;;;;;0.60;0.55;;;;;;;15.78;100.00;97308.48;1736761;79;21599;-48